createdAt,value
2019-02-09T14:30:57.935Z,21.77
2019-02-09T14:33:26.430Z,21.70
2019-02-09T14:35:54.965Z,21.67
2019-02-09T14:38:23.468Z,21.63
2019-02-09T14:40:51.975Z,21.57
2019-02-09T14:43:20.517Z,21.51
2019-02-09T14:45:49.014Z,21.51
2019-02-09T14:48:17.528Z,21.63
2019-02-09T14:50:46.037Z,21.74
2019-02-09T14:53:14.534Z,21.75
2019-02-09T14:55:43.036Z,21.86
2019-02-09T14:58:11.537Z,21.78
2019-02-09T15:00:42.730Z,21.76
2019-02-09T15:03:11.670Z,21.78
2019-02-09T15:05:40.238Z,21.80
2019-02-09T15:08:08.774Z,21.85
2019-02-09T15:10:37.268Z,21.89
2019-02-09T15:13:06.854Z,21.88
2019-02-09T15:15:38.371Z,21.85
2019-02-09T15:18:08.291Z,21.81
2019-02-09T15:20:39.445Z,21.79
2019-02-09T15:23:07.934Z,21.80
2019-02-09T15:25:36.440Z,21.77
2019-02-09T15:28:05.321Z,21.76
2019-02-09T15:30:33.837Z,21.75
2019-02-09T15:33:02.326Z,21.72
2019-02-09T15:35:30.814Z,21.80
2019-02-09T15:37:59.319Z,21.71
2019-02-09T15:40:27.846Z,21.63
2019-02-09T15:42:57.352Z,21.55
2019-02-09T15:45:25.855Z,21.48
2019-02-09T15:47:54.352Z,21.42
2019-02-09T15:50:22.873Z,21.35
2019-02-09T15:52:51.363Z,21.28
2019-02-09T15:55:19.984Z,21.20
2019-02-09T15:57:48.683Z,21.18
2019-02-09T16:00:24.949Z,21.25
2019-02-09T16:14:13.427Z,22.13
2019-02-09T16:16:41.913Z,21.66
2019-02-09T16:19:10.413Z,21.67
2019-02-09T16:21:38.950Z,21.58
2019-02-09T16:24:08.645Z,21.60
2019-02-09T16:26:37.137Z,21.66
2019-02-09T16:29:05.662Z,21.69
2019-02-09T16:31:34.191Z,21.70
2019-02-09T16:34:02.678Z,21.69
2019-02-09T16:36:31.183Z,21.69
2019-02-09T16:38:59.716Z,21.72
2019-02-09T16:41:28.542Z,21.74
2019-02-09T16:43:57.033Z,21.73
2019-02-09T16:46:25.522Z,21.70
2019-02-09T16:48:54.010Z,21.64
2019-02-09T16:51:22.518Z,21.70
2019-02-09T16:53:51.046Z,21.71
2019-02-09T16:56:19.529Z,21.59
2019-02-09T16:58:48.054Z,21.37
2019-02-09T17:01:16.573Z,21.40
2019-02-09T17:03:45.066Z,21.32
2019-02-09T17:06:13.548Z,21.25
2019-02-09T17:08:42.117Z,21.19
2019-02-09T17:11:10.629Z,21.13
2019-02-09T17:13:39.134Z,21.09
2019-02-09T17:16:07.647Z,21.06
2019-02-09T17:18:36.160Z,21.05
2019-02-09T17:21:04.647Z,21.00
2019-02-09T17:23:33.147Z,20.94
2019-02-09T17:26:01.634Z,20.88
2019-02-09T17:28:30.374Z,20.85
2019-02-09T17:30:58.854Z,20.83
2019-02-09T17:33:27.345Z,20.75
2019-02-09T17:35:55.841Z,20.78
2019-02-09T17:38:24.343Z,20.78
2019-02-09T17:40:52.863Z,20.75
2019-02-09T17:43:24.227Z,20.73
2019-02-09T17:45:55.901Z,20.73
2019-02-09T17:48:24.412Z,20.76
2019-02-09T17:50:52.901Z,20.80
2019-02-09T17:53:21.430Z,20.80
2019-02-09T17:55:49.922Z,20.78
2019-02-09T17:58:18.406Z,20.78
2019-02-09T18:00:51.260Z,20.77
2019-02-09T18:03:19.759Z,20.75
2019-02-09T18:05:48.380Z,20.74
2019-02-09T18:08:16.874Z,20.75
2019-02-09T18:10:45.441Z,20.75
2019-02-09T18:13:13.969Z,20.72
2019-02-09T18:15:42.474Z,20.71
2019-02-09T18:18:10.961Z,20.70
2019-02-09T18:20:41.146Z,20.71
2019-02-09T18:23:09.628Z,20.69
2019-02-09T18:25:38.113Z,20.69
2019-02-09T18:28:06.617Z,20.67
2019-02-09T18:30:35.117Z,20.67
2019-02-09T18:33:03.861Z,20.66
2019-02-09T18:35:32.341Z,20.65
2019-02-09T18:38:00.837Z,20.65
2019-02-09T18:40:29.432Z,20.66
2019-02-09T18:42:57.880Z,20.64
2019-02-09T18:45:27.105Z,20.62
2019-02-09T18:47:55.706Z,20.63
2019-02-09T18:50:25.370Z,20.61
2019-02-09T18:52:53.873Z,20.62
2019-02-09T18:55:23.290Z,20.62
2019-02-09T18:57:51.773Z,20.62
2019-02-09T19:00:22.479Z,20.61
2019-02-09T19:02:50.993Z,20.59
2019-02-09T19:05:19.494Z,20.59
2019-02-09T19:07:48.004Z,20.58
2019-02-09T19:10:18.568Z,20.58
2019-02-09T19:12:47.125Z,20.58
2019-02-09T19:15:17.020Z,20.60
2019-02-09T19:17:45.513Z,20.59
2019-02-09T19:20:17.009Z,20.58
2019-02-09T19:22:45.527Z,20.57
2019-02-09T19:25:14.565Z,20.58
2019-02-09T19:27:43.318Z,20.58
2019-02-09T19:30:15.402Z,20.57
2019-02-09T19:32:43.893Z,20.56
2019-02-09T19:35:12.389Z,20.56
2019-02-09T19:37:40.917Z,20.54
2019-02-09T19:40:10.173Z,20.55
2019-02-09T19:42:38.687Z,20.55
2019-02-09T19:45:10.705Z,20.55
2019-02-09T19:47:39.219Z,20.55
2019-02-09T19:50:08.793Z,20.53
2019-02-09T19:52:37.332Z,20.53
2019-02-09T19:55:06.959Z,20.53
2019-02-09T19:57:35.495Z,20.52
2019-02-09T20:00:05.476Z,20.54
2019-02-09T20:02:33.974Z,20.52
2019-02-09T20:05:02.488Z,20.53
2019-02-09T20:07:30.976Z,20.52
2019-02-09T20:09:59.477Z,20.53
2019-02-09T20:12:27.969Z,20.52
2019-02-09T20:14:56.477Z,20.52
2019-02-09T20:17:24.979Z,20.52
2019-02-09T20:19:53.493Z,20.49
2019-02-09T20:22:22.091Z,20.47
2019-02-09T20:24:50.639Z,20.47
2019-02-09T20:27:19.164Z,20.47
2019-02-09T20:29:47.719Z,20.46
2019-02-09T20:32:16.224Z,20.47
2019-02-09T20:34:44.712Z,20.45
2019-02-09T20:37:13.447Z,20.44
2019-02-09T20:39:41.949Z,20.40
2019-02-09T20:42:10.573Z,20.40
2019-02-09T20:44:39.150Z,20.45
2019-02-09T20:47:10.113Z,20.44
2019-02-09T20:49:38.593Z,20.41
2019-02-09T20:52:07.113Z,20.40
2019-02-09T20:54:35.889Z,20.41
2019-02-09T20:57:04.368Z,20.39
2019-02-09T20:59:32.864Z,20.39
2019-02-09T21:02:01.621Z,20.39
2019-02-09T21:04:30.106Z,20.37
2019-02-09T21:06:58.589Z,20.38
2019-02-09T21:09:27.109Z,20.36
2019-02-09T21:11:55.672Z,20.36
2019-02-09T21:14:24.168Z,20.35
2019-02-09T21:16:52.685Z,20.34
2019-02-09T21:19:21.199Z,20.34
2019-02-09T21:21:49.684Z,20.32
2019-02-09T21:24:18.448Z,20.33
2019-02-09T21:26:46.928Z,20.32
2019-02-09T21:29:15.437Z,20.32
2019-02-09T21:31:43.924Z,20.31
2019-02-09T21:34:12.399Z,20.32
2019-02-09T21:36:40.895Z,20.32
2019-02-09T21:39:09.864Z,20.31
2019-02-09T21:41:38.636Z,20.31
2019-02-09T21:44:07.133Z,20.30
2019-02-09T21:46:35.615Z,20.27
2019-02-09T21:49:04.384Z,20.29
2019-02-09T21:51:32.865Z,20.28
2019-02-09T21:54:01.345Z,20.29
2019-02-09T21:56:29.856Z,20.29
2019-02-09T21:58:58.381Z,20.28
2019-02-09T22:01:26.884Z,20.27
2019-02-09T22:03:55.397Z,20.27
2019-02-09T22:06:23.895Z,20.30
2019-02-09T22:08:52.394Z,20.27
2019-02-09T22:11:21.029Z,20.27
2019-02-09T22:13:50.474Z,20.25
2019-02-09T22:16:19.122Z,20.25
2019-02-09T22:18:47.901Z,20.25
2019-02-09T22:21:17.157Z,20.25
2019-02-09T22:23:45.774Z,20.26
2019-02-09T22:26:14.296Z,20.25
2019-02-09T22:28:42.741Z,20.23
2019-02-09T22:31:11.344Z,20.24
2019-02-09T22:33:39.965Z,20.24
2019-02-09T22:36:08.470Z,20.24
2019-02-09T22:38:36.991Z,20.23
2019-02-09T22:41:05.638Z,20.25
2019-02-09T22:43:34.153Z,20.23
2019-02-09T22:46:02.653Z,20.24
2019-02-09T22:48:31.575Z,20.23
2019-02-09T22:51:00.381Z,20.22
2019-02-09T22:53:28.870Z,20.24
2019-02-09T22:55:57.374Z,20.26
2019-02-09T22:58:25.982Z,20.24
2019-02-09T23:01:22.031Z,20.23
2019-02-09T23:04:06.298Z,20.23
2019-02-09T23:07:00.122Z,20.21
2019-02-09T23:09:30.684Z,20.21
2019-02-09T23:11:59.184Z,20.20
2019-02-09T23:14:27.807Z,20.20
2019-02-09T23:16:56.301Z,20.19
2019-02-09T23:19:24.788Z,20.20
2019-02-09T23:21:53.344Z,20.23
2019-02-09T23:24:21.825Z,20.22
2019-02-09T23:26:50.357Z,20.21
2019-02-09T23:29:18.973Z,20.20
2019-02-09T23:31:47.464Z,20.19
2019-02-09T23:34:16.089Z,20.20
2019-02-09T23:36:44.600Z,20.20
2019-02-09T23:39:13.120Z,20.19
2019-02-09T23:41:41.617Z,20.16
2019-02-09T23:44:10.156Z,20.15
2019-02-09T23:46:38.804Z,20.16
2019-02-09T23:49:07.349Z,20.17
2019-02-09T23:51:35.872Z,20.16
2019-02-09T23:54:04.380Z,20.17
2019-02-09T23:56:32.880Z,20.18
2019-02-09T23:59:01.415Z,20.18
